createdAt,value
2018-04-30T00:00:15.669Z,99657.87
2018-04-30T00:00:46.854Z,99658.99
2018-04-30T00:01:18.059Z,99659.07
2018-04-30T00:01:49.262Z,99663.38
2018-04-30T00:02:20.469Z,99656.33
2018-04-30T00:02:51.713Z,99667.52
2018-04-30T00:03:22.921Z,99650.42
2018-04-30T00:03:54.214Z,99659.70
2018-04-30T00:04:25.417Z,99654.28
2018-04-30T00:04:56.658Z,99654.59
2018-04-30T00:05:27.868Z,99648.38
2018-04-30T00:05:59.073Z,99653.51
2018-04-30T00:06:30.290Z,99653.11
2018-04-30T00:07:01.493Z,99655.43
2018-04-30T00:07:32.699Z,99657.34
2018-04-30T00:08:03.905Z,99660.10
2018-04-30T00:08:35.234Z,99657.16
2018-04-30T00:09:06.493Z,99653.77
2018-04-30T00:09:37.707Z,99658.11
2018-04-30T00:10:08.942Z,99658.11
2018-04-30T00:10:40.142Z,99659.74
2018-04-30T00:11:11.355Z,99659.02
2018-04-30T00:11:42.565Z,99658.59
2018-04-30T00:12:13.770Z,99661.02
2018-04-30T00:12:44.981Z,99663.92
2018-04-30T00:13:16.192Z,99665.43
2018-04-30T00:13:47.419Z,99661.32
2018-04-30T00:14:18.610Z,99663.27
2018-04-30T00:14:49.968Z,99659.11
2018-04-30T00:15:21.186Z,99655.52
2018-04-30T00:15:52.390Z,99655.65
2018-04-30T00:16:23.679Z,99658.20
2018-04-30T00:16:54.885Z,99653.06
2018-04-30T00:17:26.092Z,99652.83
2018-04-30T00:17:57.298Z,99655.70
2018-04-30T00:18:29.655Z,99650.26
2018-04-30T00:19:00.864Z,99658.22
2018-04-30T00:19:32.050Z,99655.92
2018-04-30T00:20:03.302Z,99659.90
2018-04-30T00:20:34.573Z,99659.03
2018-04-30T00:21:05.820Z,99654.09
2018-04-30T00:21:37.038Z,99660.02
2018-04-30T00:22:08.265Z,99656.52
2018-04-30T00:22:39.495Z,99660.78
2018-04-30T00:23:10.702Z,99661.02
2018-04-30T00:23:41.906Z,99660.93
2018-04-30T00:24:13.116Z,99658.50
2018-04-30T00:24:45.293Z,99661.67
2018-04-30T00:25:16.498Z,99661.95
2018-04-30T00:25:47.704Z,99661.75
2018-04-30T00:26:18.981Z,99659.52
2018-04-30T00:26:50.194Z,99657.48
2018-04-30T00:27:21.405Z,99660.52
2018-04-30T00:27:52.614Z,99662.11
2018-04-30T00:28:23.827Z,99659.83
2018-04-30T00:28:55.045Z,99660.45
2018-04-30T00:29:26.240Z,99659.38
2018-04-30T00:29:57.441Z,99660.33
2018-04-30T00:30:28.698Z,99666.79
2018-04-30T00:30:59.973Z,99656.56
2018-04-30T00:31:31.184Z,99658.19
2018-04-30T00:32:02.393Z,99658.73
2018-04-30T00:32:33.610Z,99659.21
2018-04-30T00:33:04.820Z,99664.61
2018-04-30T00:33:36.084Z,99662.61
2018-04-30T00:34:07.283Z,99659.89
2018-04-30T00:34:38.489Z,99658.58
2018-04-30T00:35:09.696Z,99663.13
2018-04-30T00:35:40.967Z,99660.10
2018-04-30T00:36:12.186Z,99660.02
2018-04-30T00:36:43.384Z,99663.40
2018-04-30T00:37:14.593Z,99663.27
2018-04-30T00:37:45.791Z,99669.81
2018-04-30T00:38:16.993Z,99664.11
2018-04-30T00:38:48.189Z,99656.70
2018-04-30T00:39:19.390Z,99663.71
2018-04-30T00:39:50.597Z,99659.51
2018-04-30T00:40:21.834Z,99663.41
2018-04-30T00:40:53.065Z,99658.81
2018-04-30T00:41:24.273Z,99660.75
2018-04-30T00:41:55.482Z,99656.63
2018-04-30T00:42:26.690Z,99653.59
2018-04-30T00:42:57.925Z,99658.69
2018-04-30T00:43:29.147Z,99656.30
2018-04-30T00:44:00.357Z,99655.52
2018-04-30T00:44:31.557Z,99656.00
2018-04-30T00:45:02.773Z,99655.25
2018-04-30T00:45:34.032Z,99652.14
2018-04-30T00:46:05.223Z,99654.20
2018-04-30T00:46:36.416Z,99652.27
2018-04-30T00:47:07.618Z,99650.42
2018-04-30T00:47:38.865Z,99653.37
2018-04-30T00:48:10.065Z,99653.68
2018-04-30T00:48:41.271Z,99652.49
2018-04-30T00:49:12.485Z,99651.05
2018-04-30T00:49:43.693Z,99654.08
2018-04-30T00:50:14.888Z,99659.70
2018-04-30T00:50:46.097Z,99653.59
2018-04-30T00:51:17.302Z,99649.20
2018-04-30T00:51:48.509Z,99648.81
2018-04-30T00:52:19.722Z,99653.19
2018-04-30T00:52:50.932Z,99646.83
2018-04-30T00:53:22.145Z,99650.47
2018-04-30T00:53:53.352Z,99650.98
2018-04-30T00:54:24.552Z,99645.02
2018-04-30T00:54:55.757Z,99654.27
2018-04-30T00:55:26.978Z,99650.33
2018-04-30T00:55:58.165Z,99644.19
2018-04-30T00:56:29.402Z,99644.66
2018-04-30T00:57:00.625Z,99648.78
2018-04-30T00:57:31.838Z,99654.70
2018-04-30T00:58:03.092Z,99648.13
2018-04-30T00:58:34.302Z,99649.79
2018-04-30T00:59:05.502Z,99644.88
2018-04-30T00:59:36.720Z,99648.27
2018-04-30T01:00:07.966Z,99647.22
2018-04-30T01:00:39.221Z,99642.60
2018-04-30T01:01:10.422Z,99644.48
2018-04-30T01:01:41.649Z,99646.61
2018-04-30T01:02:12.902Z,99648.08
2018-04-30T01:02:44.112Z,99647.52
2018-04-30T01:03:15.313Z,99644.63
2018-04-30T01:03:46.530Z,99640.77
2018-04-30T01:04:17.737Z,99644.86
2018-04-30T01:04:49.051Z,99648.11
2018-04-30T01:05:20.265Z,99644.38
2018-04-30T01:05:51.477Z,99642.89
2018-04-30T01:06:22.687Z,99620.16
2018-04-30T01:06:53.893Z,99646.45
2018-04-30T01:07:25.099Z,99648.03
2018-04-30T01:07:56.333Z,99646.19
2018-04-30T01:08:27.578Z,99647.15
2018-04-30T01:08:58.830Z,99649.08
2018-04-30T01:09:30.040Z,99648.91
2018-04-30T01:10:01.262Z,99646.31
2018-04-30T01:10:32.487Z,99646.67
2018-04-30T01:11:03.702Z,99644.03
2018-04-30T01:11:34.910Z,99642.10
2018-04-30T01:12:06.118Z,99646.84
2018-04-30T01:12:37.387Z,99643.81
2018-04-30T01:13:08.581Z,99647.59
2018-04-30T01:13:39.789Z,99643.60
2018-04-30T01:14:11.008Z,99642.72
2018-04-30T01:14:42.265Z,99647.02
2018-04-30T01:15:13.445Z,99647.38
2018-04-30T01:15:44.693Z,99643.87
2018-04-30T01:16:15.892Z,99645.23
2018-04-30T01:16:47.098Z,99645.84
2018-04-30T01:17:18.310Z,99647.41
2018-04-30T01:17:49.529Z,99641.72
2018-04-30T01:18:20.732Z,99643.91
2018-04-30T01:18:51.948Z,99643.56
2018-04-30T01:19:23.157Z,99640.52
2018-04-30T01:19:54.352Z,99642.28
2018-04-30T01:20:25.579Z,99646.32
2018-04-30T01:20:56.837Z,99641.45
2018-04-30T01:21:28.368Z,99645.70
2018-04-30T01:21:59.585Z,99637.45
2018-04-30T01:22:30.796Z,99643.37
2018-04-30T01:23:02.051Z,99645.97
2018-04-30T01:23:33.258Z,99647.77
2018-04-30T01:24:04.460Z,99644.20
2018-04-30T01:24:35.665Z,99647.15
2018-04-30T01:25:06.875Z,99645.79
2018-04-30T01:25:38.144Z,99645.84
2018-04-30T01:26:09.346Z,99645.83
2018-04-30T01:26:40.598Z,99642.84
2018-04-30T01:27:11.806Z,99644.22
2018-04-30T01:27:43.038Z,99641.39
2018-04-30T01:28:14.241Z,99639.29
2018-04-30T01:28:45.445Z,99639.19
2018-04-30T01:29:16.662Z,99640.38
2018-04-30T01:29:47.862Z,99640.86
2018-04-30T01:30:19.066Z,99642.53
2018-04-30T01:30:50.273Z,99638.72
2018-04-30T01:31:21.472Z,99640.17
2018-04-30T01:31:52.747Z,99641.47
2018-04-30T01:32:23.951Z,99636.20
2018-04-30T01:32:55.153Z,99637.88
2018-04-30T01:33:26.367Z,99639.67
2018-04-30T01:33:57.562Z,99633.26
2018-04-30T01:34:28.746Z,99637.03
2018-04-30T01:34:59.962Z,99633.65
2018-04-30T01:35:31.169Z,99631.58
2018-04-30T01:36:02.374Z,99635.83
2018-04-30T01:36:33.578Z,99635.67
2018-04-30T01:37:04.804Z,99638.56
2018-04-30T01:37:36.010Z,99644.78
2018-04-30T01:38:07.254Z,99635.57
2018-04-30T01:38:38.462Z,99642.98
2018-04-30T01:39:09.674Z,99644.34
2018-04-30T01:39:40.885Z,99640.44
2018-04-30T01:40:12.101Z,99642.50
2018-04-30T01:40:43.343Z,99635.80
2018-04-30T01:41:14.587Z,99640.50
2018-04-30T01:41:45.795Z,99637.78
2018-04-30T01:42:17.005Z,99642.92
2018-04-30T01:42:48.191Z,99640.60
2018-04-30T01:43:19.405Z,99638.64
2018-04-30T01:43:50.647Z,99639.30
2018-04-30T01:44:21.849Z,99634.92
2018-04-30T01:44:53.048Z,99639.20
2018-04-30T01:45:24.245Z,99638.30
2018-04-30T01:45:55.463Z,99634.40
2018-04-30T01:46:26.671Z,99635.72
2018-04-30T01:46:57.890Z,99636.52
2018-04-30T01:47:29.145Z,99636.82
2018-04-30T01:48:00.347Z,99631.48
2018-04-30T01:48:31.551Z,99632.10
2018-04-30T01:49:02.798Z,99635.88
2018-04-30T01:49:34.007Z,99627.07
2018-04-30T01:50:05.208Z,99630.97
2018-04-30T01:50:36.424Z,99632.24
2018-04-30T01:51:07.624Z,99632.24
2018-04-30T01:51:38.837Z,99635.84
2018-04-30T01:52:10.041Z,99629.26
2018-04-30T01:53:18.443Z,99632.16
2018-04-30T01:53:49.630Z,99632.55
2018-04-30T01:54:20.835Z,99631.64
2018-04-30T01:54:52.018Z,99625.54
2018-04-30T01:55:23.216Z,99629.48
2018-04-30T01:55:54.438Z,99625.54
2018-04-30T01:56:25.649Z,99621.59
2018-04-30T01:56:56.855Z,99625.23
2018-04-30T01:57:28.042Z,99625.14
2018-04-30T01:57:59.238Z,99627.30
2018-04-30T01:58:30.482Z,99628.05
2018-04-30T01:59:01.687Z,99623.49
2018-04-30T01:59:32.933Z,99624.67
2018-04-30T02:00:04.187Z,99626.34
2018-04-30T02:00:35.436Z,99628.98
2018-04-30T02:01:06.648Z,99627.87
2018-04-30T02:01:37.834Z,99632.83
2018-04-30T02:02:09.038Z,99630.89
2018-04-30T02:02:40.245Z,99631.09
2018-04-30T02:03:11.452Z,99632.06
2018-04-30T02:03:42.699Z,99634.81
2018-04-30T02:04:13.914Z,99630.92
2018-04-30T02:04:45.134Z,99628.77
2018-04-30T02:05:16.336Z,99629.72
2018-04-30T02:05:47.554Z,99628.94
2018-04-30T02:06:18.789Z,99630.69
2018-04-30T02:06:49.996Z,99632.05
2018-04-30T02:07:21.209Z,99627.43
2018-04-30T02:07:52.412Z,99626.20
2018-04-30T02:08:23.616Z,99621.77
2018-04-30T02:08:54.821Z,99623.12
2018-04-30T02:09:26.084Z,99625.88
2018-04-30T02:09:57.281Z,99624.69
2018-04-30T02:10:28.462Z,99622.94
2018-04-30T02:10:59.668Z,99627.45
2018-04-30T02:11:30.908Z,99623.27
2018-04-30T02:12:02.115Z,99628.58
2018-04-30T02:12:33.320Z,99626.50
2018-04-30T02:13:04.529Z,99626.55
2018-04-30T02:13:35.739Z,99628.42
2018-04-30T02:14:06.922Z,99622.38
2018-04-30T02:14:38.189Z,99625.52
2018-04-30T02:15:09.397Z,99632.22
2018-04-30T02:15:40.597Z,99628.34
2018-04-30T02:16:11.798Z,99627.87
2018-04-30T02:16:42.983Z,99628.31
2018-04-30T02:17:14.180Z,99630.58
2018-04-30T02:17:45.389Z,99627.16
2018-04-30T02:18:16.602Z,99629.55
2018-04-30T02:18:47.828Z,99627.96
2018-04-30T02:19:19.035Z,99628.48
2018-04-30T02:19:50.272Z,99620.28
2018-04-30T02:20:21.472Z,99625.34
2018-04-30T02:20:52.678Z,99624.23
2018-04-30T02:21:23.910Z,99626.38
2018-04-30T02:21:55.135Z,99623.70
2018-04-30T02:22:26.404Z,99624.78
2018-04-30T02:22:57.613Z,99622.83
2018-04-30T02:23:28.830Z,99622.59
2018-04-30T02:24:00.037Z,99623.73
2018-04-30T02:24:31.240Z,99621.27
2018-04-30T02:25:02.526Z,99625.88
2018-04-30T02:25:33.747Z,99624.27
2018-04-30T02:26:04.958Z,99625.33
2018-04-30T02:26:36.226Z,99625.97
2018-04-30T02:27:07.441Z,99623.41
2018-04-30T02:27:38.656Z,99627.39
2018-04-30T02:28:09.861Z,99622.14
2018-04-30T02:28:41.066Z,99628.74
2018-04-30T02:29:12.282Z,99626.30
2018-04-30T02:29:43.509Z,99624.59
2018-04-30T02:30:14.756Z,99623.66
2018-04-30T02:30:45.967Z,99622.16
2018-04-30T02:31:17.182Z,99625.34
2018-04-30T02:31:48.388Z,99625.45
2018-04-30T02:32:19.597Z,99627.39
2018-04-30T02:32:50.858Z,99624.51
2018-04-30T02:33:22.069Z,99626.44
2018-04-30T02:33:53.269Z,99624.47
2018-04-30T02:34:24.496Z,99622.54
2018-04-30T02:34:55.713Z,99626.11
2018-04-30T02:35:26.915Z,99627.93
2018-04-30T02:35:58.120Z,99620.13
2018-04-30T02:36:29.322Z,99625.45
2018-04-30T02:37:00.535Z,99625.66
2018-04-30T02:37:31.761Z,99627.70
2018-04-30T02:38:03.058Z,99622.59
2018-04-30T02:38:34.285Z,99626.70
2018-04-30T02:39:05.501Z,99621.53
2018-04-30T02:39:36.705Z,99628.59
2018-04-30T02:40:07.913Z,99630.81
2018-04-30T02:40:39.151Z,99622.98
2018-04-30T02:41:10.392Z,99626.95
2018-04-30T02:41:41.606Z,99625.20
2018-04-30T02:42:12.810Z,99627.02
2018-04-30T02:42:44.017Z,99627.94
2018-04-30T02:43:15.277Z,99625.75
2018-04-30T02:43:46.477Z,99625.38
2018-04-30T02:44:17.668Z,99624.54
2018-04-30T02:44:48.870Z,99623.23
2018-04-30T02:45:20.078Z,99624.14
2018-04-30T02:45:51.292Z,99624.94
2018-04-30T02:46:22.511Z,99618.09
2018-04-30T02:46:53.721Z,99618.06
2018-04-30T02:47:24.939Z,99618.49
2018-04-30T02:47:56.162Z,99621.19
2018-04-30T02:48:27.429Z,99621.69
2018-04-30T02:48:58.658Z,99623.55
2018-04-30T02:49:29.868Z,99615.75
2018-04-30T02:50:01.076Z,99617.59
2018-04-30T02:50:32.292Z,99615.95
2018-04-30T02:51:03.510Z,99622.55
2018-04-30T02:51:34.713Z,99621.30
2018-04-30T02:52:05.919Z,99623.12
2018-04-30T02:52:37.125Z,99617.03
2018-04-30T02:53:08.334Z,99612.80
2018-04-30T02:53:39.628Z,99615.45
2018-04-30T02:54:10.842Z,99619.89
2018-04-30T02:54:42.055Z,99618.19
2018-04-30T02:55:13.291Z,99618.62
2018-04-30T02:55:44.494Z,99618.22
2018-04-30T02:56:15.721Z,99619.59
2018-04-30T02:56:46.932Z,99619.66
2018-04-30T02:57:18.135Z,99615.83
2018-04-30T02:57:49.346Z,99619.86
2018-04-30T02:58:20.602Z,99617.34
2018-04-30T02:58:51.845Z,99611.30
2018-04-30T02:59:23.065Z,99614.80
2018-04-30T02:59:54.294Z,99618.69
2018-04-30T03:00:25.513Z,99614.80
2018-04-30T03:00:56.713Z,99615.20
2018-04-30T03:01:27.978Z,99623.89
2018-04-30T03:01:59.181Z,99623.46
2018-04-30T03:02:30.384Z,99618.63
2018-04-30T03:03:01.590Z,99618.22
2018-04-30T03:03:32.797Z,99624.00
2018-04-30T03:04:04.009Z,99619.23
2018-04-30T03:04:35.220Z,99627.55
2018-04-30T03:05:06.450Z,99631.55
2018-04-30T03:05:37.657Z,99632.05
2018-04-30T03:06:08.866Z,99627.31
2018-04-30T03:06:40.112Z,99633.94
2018-04-30T03:07:11.324Z,99626.58
2018-04-30T03:07:42.880Z,99636.28
2018-04-30T03:08:14.102Z,99628.49
2018-04-30T03:08:45.301Z,99632.92
2018-04-30T03:09:16.499Z,99632.15
2018-04-30T03:09:47.721Z,99634.77
2018-04-30T03:10:18.985Z,99630.50
2018-04-30T03:10:50.246Z,99634.56
2018-04-30T03:11:21.456Z,99634.66
2018-04-30T03:11:52.681Z,99636.47
2018-04-30T03:12:23.881Z,99636.56
2018-04-30T03:12:55.117Z,99633.60
2018-04-30T03:13:26.312Z,99634.20
2018-04-30T03:13:57.514Z,99644.30
2018-04-30T03:14:28.716Z,99633.05
2018-04-30T03:14:59.920Z,99634.86
2018-04-30T03:15:31.145Z,99633.64
2018-04-30T03:16:02.357Z,99636.73
2018-04-30T03:16:33.557Z,99628.84
2018-04-30T03:17:04.761Z,99634.61
2018-04-30T03:17:35.965Z,99634.70
2018-04-30T03:18:07.231Z,99631.31
2018-04-30T03:18:38.447Z,99631.34
2018-04-30T03:19:09.653Z,99635.30
2018-04-30T03:19:40.917Z,99636.27
2018-04-30T03:20:12.163Z,99628.94
2018-04-30T03:20:43.376Z,99636.02
2018-04-30T03:21:14.586Z,99636.45
2018-04-30T03:21:45.812Z,99637.85
2018-04-30T03:22:17.029Z,99635.30
2018-04-30T03:22:48.246Z,99636.60
2018-04-30T03:23:19.500Z,99631.37
2018-04-30T03:23:50.722Z,99633.55
2018-04-30T03:24:21.925Z,99630.56
2018-04-30T03:24:53.178Z,99636.55
2018-04-30T03:25:24.380Z,99634.36
2018-04-30T03:25:55.622Z,99634.80
2018-04-30T03:26:26.839Z,99634.77
2018-04-30T03:26:58.058Z,99635.92
2018-04-30T03:27:29.263Z,99631.94
2018-04-30T03:28:00.475Z,99633.98
2018-04-30T03:28:31.681Z,99633.89
2018-04-30T03:29:02.949Z,99633.77
2018-04-30T03:29:34.173Z,99635.80
2018-04-30T03:30:05.414Z,99629.19
2018-04-30T03:30:36.662Z,99634.42
2018-04-30T03:31:07.873Z,99636.07
2018-04-30T03:31:39.073Z,99636.98
2018-04-30T03:32:10.275Z,99639.66
2018-04-30T03:32:41.471Z,99636.17
2018-04-30T03:33:12.677Z,99640.56
2018-04-30T03:33:43.889Z,99642.80
2018-04-30T03:34:15.129Z,99641.56
2018-04-30T03:34:46.370Z,99640.41
2018-04-30T03:35:17.585Z,99640.84
2018-04-30T03:35:48.788Z,99638.79
2018-04-30T03:36:19.993Z,99631.78
2018-04-30T03:36:51.179Z,99639.97
2018-04-30T03:37:22.373Z,99641.25
2018-04-30T03:37:53.585Z,99637.26
2018-04-30T03:38:24.784Z,99639.75
2018-04-30T03:38:55.995Z,99645.73
2018-04-30T03:39:27.211Z,99643.02
2018-04-30T03:39:58.480Z,99645.17
2018-04-30T03:40:29.690Z,99643.99
2018-04-30T03:41:00.916Z,99643.77
2018-04-30T03:41:32.128Z,99643.66
2018-04-30T03:42:03.344Z,99642.13
2018-04-30T03:42:34.553Z,99647.48
2018-04-30T03:43:05.817Z,99646.73
2018-04-30T03:43:37.073Z,99646.36
2018-04-30T03:44:08.294Z,99644.67
2018-04-30T03:44:39.505Z,99640.87
2018-04-30T03:45:10.694Z,99640.90
2018-04-30T03:45:41.897Z,99641.18
2018-04-30T03:46:13.109Z,99644.14
2018-04-30T03:46:44.688Z,99643.30
2018-04-30T03:47:15.902Z,99643.77
2018-04-30T03:47:47.104Z,99649.91
2018-04-30T03:48:18.360Z,99643.86
2018-04-30T03:48:49.576Z,99652.12
2018-04-30T03:49:20.781Z,99649.97
2018-04-30T03:49:51.990Z,99655.48
2018-04-30T03:50:23.202Z,99647.05
2018-04-30T03:50:54.415Z,99652.44
2018-04-30T03:51:26.327Z,99656.59
2018-04-30T03:51:57.541Z,99652.47
2018-04-30T03:52:28.756Z,99652.78
2018-04-30T03:53:00.012Z,99652.72
2018-04-30T03:53:31.225Z,99657.77
2018-04-30T03:54:02.428Z,99656.36
2018-04-30T03:54:33.641Z,99650.94
2018-04-30T03:55:04.842Z,99649.90
2018-04-30T03:55:36.050Z,99650.61
2018-04-30T03:56:07.279Z,99649.73
2018-04-30T03:56:38.501Z,99648.23
2018-04-30T03:57:09.728Z,99651.84
2018-04-30T03:57:40.938Z,99650.23
2018-04-30T03:58:12.194Z,99648.99
2018-04-30T03:58:43.415Z,99638.54
2018-04-30T03:59:14.625Z,99640.35
2018-04-30T03:59:45.834Z,99645.69
2018-04-30T04:00:17.036Z,99642.86
2018-04-30T04:00:48.264Z,99641.67
2018-04-30T04:01:19.496Z,99643.98
2018-04-30T04:01:50.704Z,99644.16
2018-04-30T04:02:21.928Z,99643.22
2018-04-30T04:02:53.196Z,99643.11
2018-04-30T04:03:24.414Z,99645.69
2018-04-30T04:03:55.654Z,99641.22
2018-04-30T04:04:26.862Z,99639.97
2018-04-30T04:04:58.112Z,99638.09
2018-04-30T04:05:29.321Z,99639.84
2018-04-30T04:06:00.874Z,99643.44
2018-04-30T04:06:32.145Z,99640.60
2018-04-30T04:07:03.347Z,99640.83
2018-04-30T04:07:34.553Z,99639.23
2018-04-30T04:08:05.817Z,99633.11
2018-04-30T04:08:37.032Z,99636.94
2018-04-30T04:09:08.261Z,99633.36
2018-04-30T04:09:39.514Z,99638.53
2018-04-30T04:10:10.725Z,99636.68
2018-04-30T04:10:41.937Z,99639.05
2018-04-30T04:11:13.156Z,99639.70
2018-04-30T04:11:44.382Z,99640.51
2018-04-30T04:12:15.643Z,99636.53
2018-04-30T04:12:46.955Z,99643.50
2018-04-30T04:13:18.149Z,99645.17
2018-04-30T04:13:49.364Z,99645.28
2018-04-30T04:14:20.629Z,99649.22
2018-04-30T04:14:51.832Z,99643.97
2018-04-30T04:15:23.100Z,99646.05
2018-04-30T04:15:54.360Z,99645.69
2018-04-30T04:16:25.597Z,99646.66
2018-04-30T04:16:56.815Z,99646.34
2018-04-30T04:17:28.022Z,99646.19
2018-04-30T04:17:59.229Z,99642.56
2018-04-30T04:18:30.442Z,99645.43
2018-04-30T04:19:01.653Z,99646.88
2018-04-30T04:19:32.861Z,99647.46
2018-04-30T04:20:04.073Z,99648.39
2018-04-30T04:20:35.285Z,99645.45
2018-04-30T04:21:06.552Z,99642.58
2018-04-30T04:21:37.769Z,99642.09
2018-04-30T04:22:08.976Z,99644.39
2018-04-30T04:22:40.181Z,99644.09
2018-04-30T04:23:11.396Z,99642.06
2018-04-30T04:23:42.607Z,99636.39
2018-04-30T04:24:13.835Z,99642.49
2018-04-30T04:24:45.108Z,99645.09
2018-04-30T04:25:16.325Z,99648.69
2018-04-30T04:25:47.530Z,99647.75
2018-04-30T04:26:18.784Z,99645.97
2018-04-30T04:26:49.989Z,99649.53
2018-04-30T04:27:21.193Z,99644.75
2018-04-30T04:27:52.425Z,99650.98
2018-04-30T04:28:23.637Z,99653.85
2018-04-30T04:28:54.866Z,99646.25
2018-04-30T04:29:26.073Z,99644.80
2018-04-30T04:29:57.293Z,99650.56
2018-04-30T04:30:29.109Z,99648.38
2018-04-30T04:31:00.321Z,99644.31
2018-04-30T04:31:31.653Z,99643.81
2018-04-30T04:32:02.865Z,99645.84
2018-04-30T04:32:34.072Z,99652.10
2018-04-30T04:33:05.336Z,99650.08
2018-04-30T04:33:36.549Z,99653.84
2018-04-30T04:34:07.769Z,99649.73
2018-04-30T04:34:38.987Z,99650.56
2018-04-30T04:35:10.195Z,99651.05
2018-04-30T04:35:41.422Z,99648.77
2018-04-30T04:36:12.627Z,99648.60
2018-04-30T04:36:43.837Z,99651.11
2018-04-30T04:37:15.066Z,99646.27
2018-04-30T04:37:46.276Z,99645.13
2018-04-30T04:38:17.564Z,99643.16
2018-04-30T04:38:48.782Z,99648.83
2018-04-30T04:39:20.010Z,99641.67
2018-04-30T04:39:51.251Z,99644.23
2018-04-30T04:40:22.453Z,99643.64
2018-04-30T04:40:53.693Z,99648.67
2018-04-30T04:41:24.892Z,99645.93
2018-04-30T04:41:56.091Z,99643.06
2018-04-30T04:42:27.297Z,99641.09
2018-04-30T04:42:58.523Z,99647.03
2018-04-30T04:43:29.745Z,99645.02
2018-04-30T04:44:00.957Z,99645.00
2018-04-30T04:44:32.200Z,99646.25
2018-04-30T04:45:03.410Z,99647.20
2018-04-30T04:45:34.664Z,99646.86
2018-04-30T04:46:05.887Z,99650.94
2018-04-30T04:46:37.151Z,99653.41
2018-04-30T04:47:08.410Z,99654.54
2018-04-30T04:47:39.632Z,99655.92
2018-04-30T04:48:10.851Z,99653.45
2018-04-30T04:48:42.055Z,99656.59
2018-04-30T04:49:13.262Z,99654.84
2018-04-30T04:49:44.475Z,99655.22
2018-04-30T04:50:15.659Z,99657.21
2018-04-30T04:50:46.957Z,99649.91
2018-04-30T04:51:18.169Z,99651.70
2018-04-30T04:51:49.378Z,99653.02
2018-04-30T04:52:20.597Z,99654.62
2018-04-30T04:52:51.837Z,99653.51
2018-04-30T04:53:23.056Z,99657.43
2018-04-30T04:53:54.290Z,99657.81
2018-04-30T04:54:25.554Z,99652.75
2018-04-30T04:54:56.752Z,99657.00
2018-04-30T04:55:27.953Z,99656.33
2018-04-30T04:55:59.161Z,99658.25
2018-04-30T04:56:30.381Z,99657.13
2018-04-30T04:57:01.580Z,99656.81
2018-04-30T04:57:32.780Z,99659.84
2018-04-30T04:58:03.981Z,99657.86
2018-04-30T04:58:35.189Z,99659.27
2018-04-30T04:59:06.402Z,99665.11
2018-04-30T04:59:37.667Z,99657.41
2018-04-30T05:00:08.868Z,99663.47
2018-04-30T05:00:40.074Z,99656.89
2018-04-30T05:01:11.281Z,99659.00
2018-04-30T05:01:42.532Z,99660.94
2018-04-30T05:02:13.727Z,99662.27
2018-04-30T05:02:44.928Z,99664.19
2018-04-30T05:03:16.132Z,99663.33
2018-04-30T05:03:47.335Z,99655.80
2018-04-30T05:04:18.545Z,99664.59
2018-04-30T05:04:49.749Z,99658.73
2018-04-30T05:05:20.956Z,99664.03
2018-04-30T05:05:52.161Z,99661.80
2018-04-30T05:06:23.384Z,99660.37
2018-04-30T05:06:54.642Z,99657.31
2018-04-30T05:07:25.894Z,99661.50
2018-04-30T05:07:57.128Z,99660.97
2018-04-30T05:08:28.386Z,99659.55
2018-04-30T05:08:59.593Z,99659.20
2018-04-30T05:09:30.827Z,99663.66
2018-04-30T05:10:02.054Z,99661.27
2018-04-30T05:10:33.284Z,99662.80
2018-04-30T05:11:04.493Z,99660.30
2018-04-30T05:11:35.757Z,99659.95
2018-04-30T05:12:06.957Z,99662.06
2018-04-30T05:12:38.201Z,99659.41
2018-04-30T05:13:09.422Z,99662.97
2018-04-30T05:13:40.624Z,99659.30
2018-04-30T05:14:11.848Z,99659.20
2018-04-30T05:14:43.063Z,99657.73
2018-04-30T05:15:14.278Z,99663.43
2018-04-30T05:15:45.480Z,99664.37
2018-04-30T05:16:16.781Z,99668.30
2018-04-30T05:16:48.002Z,99665.76
2018-04-30T05:17:19.266Z,99661.11
2018-04-30T05:17:50.496Z,99661.75
2018-04-30T05:18:21.765Z,99660.82
2018-04-30T05:18:52.986Z,99662.16
2018-04-30T05:19:24.188Z,99655.95
2018-04-30T05:19:55.415Z,99658.94
2018-04-30T05:20:26.637Z,99654.83
2018-04-30T05:20:57.944Z,99659.27
2018-04-30T05:21:29.169Z,99616.94
2018-04-30T05:22:00.432Z,99656.07
2018-04-30T05:22:31.667Z,99651.31
2018-04-30T05:23:02.890Z,99649.05
2018-04-30T05:23:34.119Z,99649.05
2018-04-30T05:24:05.331Z,99655.63
2018-04-30T05:24:36.585Z,99655.95
2018-04-30T05:25:07.802Z,99650.72
2018-04-30T05:25:39.020Z,99653.13
2018-04-30T05:26:10.233Z,99646.70
2018-04-30T05:26:41.461Z,99650.70
2018-04-30T05:27:12.705Z,99653.69
2018-04-30T05:27:43.909Z,99648.84
2018-04-30T05:28:15.092Z,99652.59
2018-04-30T05:28:46.293Z,99653.89
2018-04-30T05:29:17.490Z,99643.10
2018-04-30T05:29:48.681Z,99647.55
2018-04-30T05:30:19.892Z,99647.52
2018-04-30T05:30:51.149Z,99640.03
2018-04-30T05:31:22.348Z,99647.59
2018-04-30T05:31:53.624Z,99646.95
2018-04-30T05:32:24.845Z,99641.32
2018-04-30T05:32:56.054Z,99646.06
2018-04-30T05:33:27.278Z,99642.54
2018-04-30T05:33:58.525Z,99646.34
2018-04-30T05:34:29.748Z,99642.97
2018-04-30T05:35:00.960Z,99645.91
2018-04-30T05:35:32.189Z,99645.08
2018-04-30T05:36:03.489Z,99648.30
2018-04-30T05:36:34.709Z,99650.39
2018-04-30T05:37:05.921Z,99649.06
2018-04-30T05:37:37.136Z,99651.30
2018-04-30T05:38:08.348Z,99649.97
2018-04-30T05:38:39.545Z,99648.09
2018-04-30T05:39:10.756Z,99649.17
2018-04-30T05:39:41.981Z,99649.39
2018-04-30T05:40:13.195Z,99651.22
2018-04-30T05:40:44.432Z,99644.80
2018-04-30T05:41:15.651Z,99646.89
2018-04-30T05:41:46.867Z,99643.66
2018-04-30T05:42:18.074Z,99645.04
2018-04-30T05:42:49.276Z,99638.24
2018-04-30T05:43:20.494Z,99643.70
2018-04-30T05:43:51.705Z,99640.55
2018-04-30T05:44:22.917Z,99638.57
2018-04-30T05:44:54.117Z,99637.80
2018-04-30T05:45:25.362Z,99637.81
2018-04-30T05:45:56.578Z,99633.53
2018-04-30T05:46:27.860Z,99633.47
2018-04-30T05:46:59.095Z,99631.66
2018-04-30T05:47:31.072Z,99628.23
2018-04-30T05:48:02.392Z,99630.55
2018-04-30T05:48:33.565Z,99627.56
2018-04-30T05:49:04.768Z,99633.00
2018-04-30T05:49:35.976Z,99629.55
2018-04-30T05:50:07.210Z,99627.29
2018-04-30T05:50:38.425Z,99627.84
2018-04-30T05:51:09.649Z,99622.67
2018-04-30T05:51:40.869Z,99626.97
2018-04-30T05:52:12.093Z,99629.61
2018-04-30T05:52:43.300Z,99631.48
2018-04-30T05:53:14.691Z,99630.76
2018-04-30T05:53:45.907Z,99629.25
2018-04-30T05:54:17.143Z,99629.77
2018-04-30T05:54:48.404Z,99619.77
2018-04-30T05:55:19.709Z,99629.66
2018-04-30T05:55:50.901Z,99628.43
2018-04-30T05:56:22.115Z,99627.17
2018-04-30T05:56:53.333Z,99627.03
2018-04-30T05:57:24.546Z,99632.97
2018-04-30T05:57:55.823Z,99631.94
2018-04-30T05:58:27.051Z,99628.65
2018-04-30T05:58:58.276Z,99627.32
2018-04-30T05:59:29.491Z,99628.46
2018-04-30T06:00:00.773Z,99623.36
2018-04-30T06:00:32.077Z,99621.98
2018-04-30T06:01:03.310Z,99625.73
2018-04-30T06:01:34.531Z,99622.55
2018-04-30T06:02:05.735Z,99621.64
2018-04-30T06:02:36.958Z,99626.50
2018-04-30T06:03:09.329Z,99624.69
2018-04-30T06:03:40.532Z,99621.69
2018-04-30T06:04:11.762Z,99619.61
2018-04-30T06:04:42.976Z,99623.52
2018-04-30T06:05:14.172Z,99618.63
2018-04-30T06:05:45.398Z,99610.58
2018-04-30T06:06:16.671Z,99623.70
2018-04-30T06:06:47.944Z,99618.69
2018-04-30T06:07:19.161Z,99618.06